Observation data for Gail on 07/03/2020      Previous  Date  Next       Current Mesonet Observations  Soil Data  Daily Summary Page  Observations in Plain Language
KGGS 030500Z 14005KT 27/15 A3001 RMK A01 T02690147  RH  049%=      5-min Rain = 0
KGGS 030505Z 13005KT 27/15 A3001 RMK A01 T02690146  RH  049%=      5-min Rain = 0
KGGS 030510Z 13005KT 27/15 A3002 RMK A01 T02680146  RH  049%=      5-min Rain = 0
KGGS 030515Z 13005KT 27/15 A3002 RMK A01 T02670146  RH  050%=      5-min Rain = 0
KGGS 030520Z 13005KT 27/15 A3002 RMK A01 T02660146  RH  050%=      5-min Rain = 0
KGGS 030525Z 13005KT 27/15 A3002 RMK A01 T02660145  RH  050%=      5-min Rain = 0
KGGS 030530Z 13005KT 27/15 A3002 RMK A01 T02650145  RH  050%=      5-min Rain = 0
KGGS 030535Z 13005KT 26/15 A3002 RMK A01 T02640146  RH  050%=      5-min Rain = 0
KGGS 030540Z 13005KT 26/15 A3002 RMK A01 T02620146  RH  051%=      5-min Rain = 0
KGGS 030545Z 13005KT 26/15 A3002 RMK A01 T02620147  RH  051%=      5-min Rain = 0
KGGS 030550Z 14004KT 26/15 A3002 RMK A01 T02620146  RH  051%=      5-min Rain = 0
KGGS 030555Z 15004KT 26/15 A3002 RMK A01 T02610146  RH  051%=      5-min Rain = 0
KGGS 030600Z 14005KT 26/15 A3002 RMK A01 T02610146  RH  051%=      5-min Rain = 0
KGGS 030605Z 14005KT 26/15 A3002 RMK A01 T02620145  RH  051%=      5-min Rain = 0
KGGS 030610Z 14005KT 26/15 A3002 RMK A01 T02630145  RH  050%=      5-min Rain = 0
KGGS 030615Z 14004KT 26/14 A3002 RMK A01 T02630144  RH  050%=      5-min Rain = 0
KGGS 030620Z 15004KT 26/14 A3002 RMK A01 T02620144  RH  050%=      5-min Rain = 0
KGGS 030625Z 14004KT 26/14 A3002 RMK A01 T02610144  RH  051%=      5-min Rain = 0
KGGS 030630Z 15004KT 26/14 A3002 RMK A01 T02600144  RH  051%=      5-min Rain = 0
KGGS 030635Z 16004KT 26/14 A3002 RMK A01 T02590144  RH  051%=      5-min Rain = 0
KGGS 030640Z 18004KT 26/14 A3001 RMK A01 T02570144  RH  052%=      5-min Rain = 0
KGGS 030645Z 17005KT 26/14 A3001 RMK A01 T02550143  RH  052%=      5-min Rain = 0
KGGS 030650Z 18006KT 26/14 A3001 RMK A01 T02560143  RH  052%=      5-min Rain = 0
KGGS 030655Z 18004KT 25/14 A3001 RMK A01 T02540144  RH  053%=      5-min Rain = 0
KGGS 030700Z 18003KT 25/15 A3001 RMK A01 T02510145  RH  054%=      5-min Rain = 0
KGGS 030705Z 18003KT 25/15 A3001 RMK A01 T02480145  RH  055%=      5-min Rain = 0
KGGS 030710Z 18004KT 24/15 A3001 RMK A01 T02440146  RH  057%=      5-min Rain = 0
KGGS 030715Z 18005KT 24/15 A3001 RMK A01 T02400147  RH  058%=      5-min Rain = 0
KGGS 030720Z 18004KT 24/15 A30 RMK A01 T02390147  RH  059%=      5-min Rain = 0
KGGS 030725Z 17003KT 24/15 A30 RMK A01 T02360148  RH  060%=      5-min Rain = 0
KGGS 030730Z 15004KT 23/15 A30 RMK A01 T02320148  RH  062%=      5-min Rain = 0
KGGS 030735Z 17004KT 23/15 A30 RMK A01 T02320147  RH  062%=      5-min Rain = 0
KGGS 030740Z 17004KT 23/15 A30 RMK A01 T02330147  RH  061%=      5-min Rain = 0
KGGS 030745Z 17004KT 23/15 A2999 RMK A01 T02320147  RH  061%=      5-min Rain = 0
KGGS 030750Z 18005KT 23/15 A2999 RMK A01 T02330147  RH  061%=      5-min Rain = 0
KGGS 030755Z 18006KT 24/15 A2998 RMK A01 T02350147  RH  061%=      5-min Rain = 0
KGGS 030800Z 19006KT 24/15 A2998 RMK A01 T02350147  RH  060%=      5-min Rain = 0
KGGS 030805Z 18004KT 23/15 A2998 RMK A01 T02340148  RH  061%=      5-min Rain = 0
KGGS 030810Z 13003KT 23/15 A2999 RMK A01 T02300149  RH  063%=      5-min Rain = 0
KGGS 030815Z 11003KT 23/15 A2999 RMK A01 T02280148  RH  063%=      5-min Rain = 0
KGGS 030820Z 13003KT 23/15 A2999 RMK A01 T02270147  RH  063%=      5-min Rain = 0
KGGS 030825Z 17002KT 23/15 A2998 RMK A01 T02280146  RH  063%=      5-min Rain = 0
KGGS 030830Z 12002KT 23/15 A2999 RMK A01 T02270148  RH  064%=      5-min Rain = 0
KGGS 030835Z 10002KT 22/15 A2999 RMK A01 T02230148  RH  065%=      5-min Rain = 0
KGGS 030840Z 12000KT 22/15 A2999 RMK A01 T02230147  RH  065%=      5-min Rain = 0
KGGS 030845Z 00000KT 22/15 A2999 RMK A01 T02200148  RH  067%=      5-min Rain = 0
KGGS 030850Z 08001KT 22/15 A30 RMK A01 T02150150  RH  069%=      5-min Rain = 0
KGGS 030855Z 08002KT 21/15 A30 RMK A01 T02130151  RH  071%=      5-min Rain = 0
KGGS 030900Z 11002KT 21/15 A30 RMK A01 T02130150  RH  071%=      5-min Rain = 0
KGGS 030905Z 13002KT 22/15 A30 RMK A01 T02150149  RH  069%=      5-min Rain = 0
KGGS 030910Z 11002KT 22/15 A30 RMK A01 T02160150  RH  069%=      5-min Rain = 0
KGGS 030915Z 12004KT 21/15 A30 RMK A01 T02130150  RH  070%=      5-min Rain = 0
KGGS 030920Z 11005KT 22/15 A3001 RMK A01 T02150149  RH  069%=      5-min Rain = 0
KGGS 030925Z 09003KT 22/15 A3001 RMK A01 T02170148  RH  068%=      5-min Rain = 0
KGGS 030930Z 10003KT 22/15 A3001 RMK A01 T02200148  RH  067%=      5-min Rain = 0
KGGS 030935Z 13002KT 22/15 A3001 RMK A01 T02200148  RH  066%=      5-min Rain = 0
KGGS 030940Z 13003KT 22/15 A3001 RMK A01 T02190148  RH  067%=      5-min Rain = 0
KGGS 030945Z 12003KT 22/15 A3001 RMK A01 T02170148  RH  068%=      5-min Rain = 0
KGGS 030950Z 11004KT 21/15 A3001 RMK A01 T02140149  RH  069%=      5-min Rain = 0
KGGS 030955Z 12004KT 21/15 A3001 RMK A01 T02120149  RH  070%=      5-min Rain = 0
KGGS 031000Z 13004KT 21/15 A3001 RMK A01 T02110147  RH  070%=      5-min Rain = 0
KGGS 031005Z 14004KT 21/15 A3001 RMK A01 T02140146  RH  068%=      5-min Rain = 0
KGGS 031010Z 14005KT 22/15 A3001 RMK A01 T02160145  RH  067%=      5-min Rain = 0
KGGS 031015Z 14004KT 22/14 A3002 RMK A01 T02180144  RH  066%=      5-min Rain = 0
KGGS 031020Z 14004KT 22/15 A3002 RMK A01 T02180145  RH  066%=      5-min Rain = 0
KGGS 031025Z 14004KT 22/14 A3002 RMK A01 T02170144  RH  066%=      5-min Rain = 0
KGGS 031030Z 15004KT 22/15 A3002 RMK A01 T02150145  RH  067%=      5-min Rain = 0
KGGS 031035Z 17004KT 22/14 A3002 RMK A01 T02150144  RH  067%=      5-min Rain = 0
KGGS 031040Z 16004KT 22/15 A3002 RMK A01 T02150145  RH  067%=      5-min Rain = 0
KGGS 031045Z 14003KT 21/15 A3002 RMK A01 T02140146  RH  068%=      5-min Rain = 0
KGGS 031050Z 14002KT 21/15 A3002 RMK A01 T02120146  RH  069%=      5-min Rain = 0
KGGS 031055Z 17002KT 21/15 A3002 RMK A01 T02100146  RH  070%=      5-min Rain = 0
KGGS 031100Z 16002KT 21/15 A3002 RMK A01 T02090146  RH  070%=      5-min Rain = 0
KGGS 031105Z 17003KT 21/15 A3002 RMK A01 T02080146  RH  071%=      5-min Rain = 0
KGGS 031110Z 16004KT 21/15 A3002 RMK A01 T02070146  RH  071%=      5-min Rain = 0
KGGS 031115Z 16003KT 21/15 A3002 RMK A01 T02060148  RH  073%=      5-min Rain = 0
KGGS 031120Z 16002KT 20/15 A3002 RMK A01 T02040148  RH  073%=      5-min Rain = 0
KGGS 031125Z 13001KT 20/15 A3003 RMK A01 T02030150  RH  075%=      5-min Rain = 0
KGGS 031130Z 10000KT 20/15 A3003 RMK A01 T02010149  RH  075%=      5-min Rain = 0
KGGS 031135Z 00000KT 20/15 A3003 RMK A01 T02000148  RH  075%=      5-min Rain = 0
KGGS 031140Z 01001KT 20/15 A3003 RMK A01 T01980148  RH  076%=      5-min Rain = 0
KGGS 031145Z 36002KT 20/15 A3004 RMK A01 T01970149  RH  077%=      5-min Rain = 0
KGGS 031150Z 35001KT 20/15 A3004 RMK A01 T01970150  RH  078%=      5-min Rain = 0
KGGS 031155Z 10000KT 20/15 A3004 RMK A01 T01990150  RH  077%=      5-min Rain = 0
KGGS 031200Z 13001KT 20/15 A3004 RMK A01 T02000150  RH  076%=      5-min Rain = 0
KGGS 031205Z 13001KT 20/15 A3005 RMK A01 T02010151  RH  076%=      5-min Rain = 0
KGGS 031210Z 12001KT 20/15 A3005 RMK A01 T02020151  RH  076%=      5-min Rain = 0
KGGS 031215Z 11002KT 20/15 A3005 RMK A01 T02040154  RH  076%=      5-min Rain = 0
KGGS 031220Z 11003KT 21/15 A3005 RMK A01 T02080154  RH  075%=      5-min Rain = 0
KGGS 031225Z 11002KT 21/15 A3005 RMK A01 T02120154  RH  073%=      5-min Rain = 0
KGGS 031230Z 10001KT 22/16 A3005 RMK A01 T02160156  RH  072%=      5-min Rain = 0
KGGS 031235Z 07001KT 22/16 A3005 RMK A01 T02230158  RH  070%=      5-min Rain = 0
KGGS 031240Z 05000KT 23/16 A3006 RMK A01 T02270161  RH  070%=      5-min Rain = 0
KGGS 031245Z 04001KT 23/16 A3006 RMK A01 T02270157  RH  068%=      5-min Rain = 0
KGGS 031250Z 04001KT 23/16 A3006 RMK A01 T02290160  RH  068%=      5-min Rain = 0
KGGS 031255Z 04001KT 23/16 A3006 RMK A01 T02300160  RH  068%=      5-min Rain = 0
KGGS 031300Z 04001KT 23/16 A3006 RMK A01 T02330162  RH  068%=      5-min Rain = 0
KGGS 031305Z 07001KT 24/16 A3006 RMK A01 T02400164  RH  066%=      5-min Rain = 0
KGGS 031310Z 10001KT 24/16 A3006 RMK A01 T02430161  RH  063%=      5-min Rain = 0
KGGS 031315Z 11002KT 24/16 A3006 RMK A01 T02440160  RH  062%=      5-min Rain = 0
KGGS 031320Z 12002KT 25/16 A3007 RMK A01 T02460162  RH  062%=      5-min Rain = 0
KGGS 031325Z 14002KT 25/16 A3007 RMK A01 T02520164  RH  061%=      5-min Rain = 0
KGGS 031330Z 14003KT 26/16 A3007 RMK A01 T02570163  RH  059%=      5-min Rain = 0
KGGS 031335Z 14003KT 26/17 A3007 RMK A01 T02580166  RH  060%=      5-min Rain = 0
KGGS 031340Z 16005KT 26/17 A3007 RMK A01 T02630171  RH  060%=      5-min Rain = 0
KGGS 031345Z 16006KT 27/17 A3007 RMK A01 T02660172  RH  059%=      5-min Rain = 0
KGGS 031350Z 17007KT 27/17 A3007 RMK A01 T02670173  RH  059%=      5-min Rain = 0
KGGS 031355Z 18006KT 27/18 A3007 RMK A01 T02670175  RH  060%=      5-min Rain = 0
KGGS 031400Z 18006KT 27/18 A3007 RMK A01 T02700176  RH  059%=      5-min Rain = 0
KGGS 031405Z 17007KT 27/18 A3007 RMK A01 T02700175  RH  059%=      5-min Rain = 0
KGGS 031410Z 17008KT 27/18 A3006 RMK A01 T02690175  RH  059%=      5-min Rain = 0
KGGS 031415Z 19009G14KT 27/18 A3006 RMK A01 T02720178  RH  060%=      5-min Rain = 0
KGGS 031420Z 19008KT 28/18 A3006 RMK A01 T02760181  RH  059%=      5-min Rain = 0
KGGS 031425Z 19009KT 28/18 A3006 RMK A01 T02790182  RH  059%=      5-min Rain = 0
KGGS 031430Z 18010G15KT 28/18 A3007 RMK A01 T02800183  RH  059%=      5-min Rain = 0
KGGS 031435Z 19012KT 28/18 A3007 RMK A01 T02830182  RH  057%=      5-min Rain = 0
KGGS 031440Z 19011KT 28/18 A3007 RMK A01 T02820181  RH  057%=      5-min Rain = 0
KGGS 031445Z 19009KT 29/18 A3007 RMK A01 T02850183  RH  057%=      5-min Rain = 0
KGGS 031450Z 19011KT 29/18 A3007 RMK A01 T02860182  RH  056%=      5-min Rain = 0
KGGS 031455Z 18009G15KT 29/18 A3007 RMK A01 T02880182  RH  056%=      5-min Rain = 0
KGGS 031500Z 18010KT 29/18 A3007 RMK A01 T02910182  RH  055%=      5-min Rain = 0
KGGS 031505Z 18010KT 29/18 A3007 RMK A01 T02890182  RH  055%=      5-min Rain = 0
KGGS 031510Z 18008G13KT 29/18 A3007 RMK A01 T02920182  RH  055%=      5-min Rain = 0
KGGS 031515Z 17009KT 29/18 A3007 RMK A01 T02930183  RH  054%=      5-min Rain = 0
KGGS 031520Z 16008KT 30/18 A3007 RMK A01 T02950183  RH  054%=      5-min Rain = 0
KGGS 031525Z 18006KT 30/18 A3007 RMK A01 T02970183  RH  053%=      5-min Rain = 0
KGGS 031530Z 14006KT 30/18 A3007 RMK A01 T02980183  RH  053%=      5-min Rain = 0
KGGS 031535Z 16007KT 30/18 A3007 RMK A01 T03010184  RH  052%=      5-min Rain = 0
KGGS 031540Z 16007KT 30/18 A3007 RMK A01 T03020184  RH  052%=      5-min Rain = 0
KGGS 031545Z 15007KT 30/18 A3007 RMK A01 T03030180  RH  050%=      5-min Rain = 0
KGGS 031550Z 15005KT 30/18 A3007 RMK A01 T03040181  RH  050%=      5-min Rain = 0
KGGS 031555Z 18006KT 31/18 A3007 RMK A01 T03060177  RH  049%=      5-min Rain = 0
KGGS 031600Z 16005KT 31/18 A3007 RMK A01 T03100181  RH  049%=      5-min Rain = 0
KGGS 031605Z 16006KT 31/18 A3007 RMK A01 T03100177  RH  047%=      5-min Rain = 0
KGGS 031610Z 14006KT 31/17 A3007 RMK A01 T03110174  RH  046%=      5-min Rain = 0
KGGS 031615Z 17008KT 32/17 A3007 RMK A01 T03170168  RH  043%=      5-min Rain = 0
KGGS 031620Z 16007KT 31/17 A3007 RMK A01 T03140167  RH  043%=      5-min Rain = 0
KGGS 031625Z 16007KT 32/17 A3007 RMK A01 T03150167  RH  043%=      5-min Rain = 0
KGGS 031630Z 15007KT 32/17 A3007 RMK A01 T03220166  RH  041%=      5-min Rain = 0
KGGS 031635Z 16005G13KT 32/17 A3007 RMK A01 T03230168  RH  041%=      5-min Rain = 0
KGGS 031640Z 17009KT 32/17 A3007 RMK A01 T03240167  RH  041%=      5-min Rain = 0
KGGS 031645Z 15007KT 33/17 A3007 RMK A01 T03250169  RH  041%=      5-min Rain = 0
KGGS 031650Z 14006KT 33/17 A3007 RMK A01 T03250170  RH  041%=      5-min Rain = 0
KGGS 031655Z 14009KT 33/17 A3007 RMK A01 T03280169  RH  041%=      5-min Rain = 0
KGGS 031700Z 13008G13KT 33/17 A3007 RMK A01 T03280167  RH  040%=      5-min Rain = 0
KGGS 031705Z 16006G14KT 33/16 A3007 RMK A01 T03320162  RH  038%=      5-min Rain = 0
KGGS 031710Z 14006KT 33/17 A3007 RMK A01 T03330167  RH  039%=      5-min Rain = 0
KGGS 031715Z 14008KT 33/16 A3007 RMK A01 T03310163  RH  038%=      5-min Rain = 0
KGGS 031720Z 14005G10KT 33/16 A3007 RMK A01 T03310164  RH  039%=      5-min Rain = 0
KGGS 031725Z 14010KT 33/16 A3007 RMK A01 T03330158  RH  037%=      5-min Rain = 0
KGGS 031730Z 14008G13KT 33/16 A3007 RMK A01 T03330157  RH  036%=      5-min Rain = 0
KGGS 031735Z 15008G16KT 34/16 A3006 RMK A01 T03370156  RH  035%=      5-min Rain = 0
KGGS 031740Z 13007G12KT 34/15 A3006 RMK A01 T03390149  RH  033%=      5-min Rain = 0
KGGS 031745Z 13009G15KT 34/14 A3006 RMK A01 T03370144  RH  033%=      5-min Rain = 0
KGGS 031750Z 13007G12KT 34/14 A3006 RMK A01 T03400135  RH  030%=      5-min Rain = 0
KGGS 031755Z 14008G16KT 35/14 A3006 RMK A01 T03450143  RH  031%=      5-min Rain = 0
KGGS 031800Z 14009G14KT 35/13 A3006 RMK A01 T03450128  RH  028%=      5-min Rain = 0
KGGS 031805Z 14009G15KT 35/14 A3006 RMK A01 T03460137  RH  030%=      5-min Rain = 0
KGGS 031810Z 14006G13KT 35/14 A3006 RMK A01 T03460135  RH  029%=      5-min Rain = 0
KGGS 031815Z 12008G13KT 35/13 A3006 RMK A01 T03460132  RH  029%=      5-min Rain = 0
KGGS 031820Z 14008KT 34/14 A3005 RMK A01 T03440135  RH  029%=      5-min Rain = 0
KGGS 031825Z 15010KT 35/13 A3005 RMK A01 T03490129  RH  028%=      5-min Rain = 0
KGGS 031830Z 14007G12KT 35/13 A3005 RMK A01 T03470129  RH  028%=      5-min Rain = 0
KGGS 031835Z 15007G13KT 35/13 A3004 RMK A01 T03470131  RH  028%=      5-min Rain = 0
KGGS 031840Z 12008G13KT 35/13 A3004 RMK A01 T03510132  RH  028%=      5-min Rain = 0
KGGS 031845Z 15008G14KT 35/12 A3004 RMK A01 T03520119  RH  025%=      5-min Rain = 0
KGGS 031850Z 16006G12KT 36/12 A3004 RMK A01 T03550124  RH  026%=      5-min Rain = 0
KGGS 031855Z 13005KT 35/12 A3004 RMK A01 T03490117  RH  025%=      5-min Rain = 0
KGGS 031900Z 15008G19KT 35/11 A3004 RMK A01 T03540109  RH  023%=      5-min Rain = 0
KGGS 031905Z 14009G14KT 36/10 A3004 RMK A01 T03570100  RH  022%=      5-min Rain = 0
KGGS 031910Z 14007G12KT 36/11 A3003 RMK A01 T03570107  RH  023%=      5-min Rain = 0
KGGS 031915Z 13004KT 35/11 A3003 RMK A01 T03530108  RH  023%=      5-min Rain = 0
KGGS 031920Z 13011G17KT 35/11 A3003 RMK A01 T03540112  RH  024%=      5-min Rain = 0
KGGS 031925Z 13007G12KT 35/11 A3003 RMK A01 T03530112  RH  024%=      5-min Rain = 0
KGGS 031930Z 13002KT 35/12 A3003 RMK A01 T03500115  RH  025%=      5-min Rain = 0
KGGS 031935Z 15009KT 36/11 A3003 RMK A01 T03560111  RH  024%=      5-min Rain = 0
KGGS 031940Z 14005G11KT 36/11 A3002 RMK A01 T03600106  RH  022%=      5-min Rain = 0
KGGS 031945Z 11009G15KT 36/12 A3002 RMK A01 T03570115  RH  024%=      5-min Rain = 0
KGGS 031950Z 09009KT 35/12 A3002 RMK A01 T03540116  RH  025%=      5-min Rain = 0
KGGS 031955Z 11008G20KT 36/11 A3001 RMK A01 T03550110  RH  023%=      5-min Rain = 0
KGGS 032000Z 15009G15KT 36/10 A3001 RMK A01 T03600102  RH  022%=      5-min Rain = 0
KGGS 032005Z 13008G13KT 36/11 A3001 RMK A01 T03580109  RH  023%=      5-min Rain = 0
KGGS 032010Z 11008G15KT 36/11 A3001 RMK A01 T03590114  RH  024%=      5-min Rain = 0
KGGS 032015Z 11008G15KT 36/11 A3001 RMK A01 T03580109  RH  023%=      5-min Rain = 0
KGGS 032020Z 12009G15KT 36/11 A3001 RMK A01 T03620108  RH  022%=      5-min Rain = 0
KGGS 032025Z 12009G17KT 36/11 A3001 RMK A01 T03600105  RH  022%=      5-min Rain = 0
KGGS 032030Z 13009G15KT 36/11 A3001 RMK A01 T03610108  RH  022%=      5-min Rain = 0
KGGS 032035Z 14008G14KT 36/10 A3001 RMK A01 T03640103  RH  021%=      5-min Rain = 0
KGGS 032040Z 15005G10KT 36/10 A30 RMK A01 T03600104  RH  022%=      5-min Rain = 0
KGGS 032045Z 10006G12KT 36/10 A30 RMK A01 T03600104  RH  022%=      5-min Rain = 0
KGGS 032050Z 12009G14KT 37/11 A30 RMK A01 T03650107  RH  022%=      5-min Rain = 0
KGGS 032055Z 12005KT 36/11 A30 RMK A01 T03620106  RH  022%=      5-min Rain = 0
KGGS 032100Z 13005G10KT 36/11 A30 RMK A01 T03620107  RH  022%=      5-min Rain = 0
KGGS 032105Z 12010G16KT 37/11 A30 RMK A01 T03670110  RH  022%=      5-min Rain = 0
KGGS 032110Z 11006KT 36/11 A30 RMK A01 T03570109  RH  023%=      5-min Rain = 0
KGGS 032115Z 10004KT 36/11 A2999 RMK A01 T03610111  RH  023%=      5-min Rain = 0
KGGS 032120Z 13007G14KT 37/11 A2999 RMK A01 T03660111  RH  022%=      5-min Rain = 0
KGGS 032125Z 12009KT 37/11 A2999 RMK A01 T03650111  RH  022%=      5-min Rain = 0
KGGS 032130Z 14009G15KT 36/11 A2999 RMK A01 T03630111  RH  023%=      5-min Rain = 0
KGGS 032135Z 12009G16KT 37/11 A2999 RMK A01 T03660113  RH  023%=      5-min Rain = 0
KGGS 032140Z 11011KT 36/11 A2999 RMK A01 T03630113  RH  023%=      5-min Rain = 0
KGGS 032145Z 10007G14KT 36/11 A2998 RMK A01 T03600112  RH  023%=      5-min Rain = 0
KGGS 032150Z 09009G15KT 37/11 A2998 RMK A01 T03660114  RH  023%=      5-min Rain = 0
KGGS 032155Z 12010G16KT 36/11 A2998 RMK A01 T03640110  RH  022%=      5-min Rain = 0
KGGS 032200Z 12008G15KT 36/11 A2998 RMK A01 T03640109  RH  022%=      5-min Rain = 0
KGGS 032205Z 12006G13KT 37/11 A2997 RMK A01 T03660110  RH  022%=      5-min Rain = 0
KGGS 032210Z 12009G14KT 37/11 A2997 RMK A01 T03680112  RH  022%=      5-min Rain = 0
KGGS 032215Z 13009KT 36/11 A2998 RMK A01 T03630105  RH  022%=      5-min Rain = 0
KGGS 032220Z 12007KT 37/11 A2997 RMK A01 T03680108  RH  022%=      5-min Rain = 0
KGGS 032225Z 12008G13KT 36/10 A2997 RMK A01 T03630104  RH  021%=      5-min Rain = 0
KGGS 032230Z 13008G13KT 36/11 A2997 RMK A01 T03630105  RH  022%=      5-min Rain = 0
KGGS 032235Z 11009G17KT 37/11 A2997 RMK A01 T03650105  RH  021%=      5-min Rain = 0
KGGS 032240Z 12009G14KT 37/10 A2997 RMK A01 T03650104  RH  021%=      5-min Rain = 0
KGGS 032245Z 12007G12KT 36/10 A2997 RMK A01 T03610100  RH  021%=      5-min Rain = 0
KGGS 032250Z 09007KT 36/10 A2996 RMK A01 T03620101  RH  021%=      5-min Rain = 0
KGGS 032255Z 10009G15KT 36/10 A2996 RMK A01 T03640099  RH  021%=      5-min Rain = 0
KGGS 032300Z 11008G14KT 36/10 A2996 RMK A01 T03620100  RH  021%=      5-min Rain = 0
KGGS 032305Z 10007KT 36/10 A2996 RMK A01 T03630102  RH  021%=      5-min Rain = 0
KGGS 032310Z 09007KT 36/10 A2996 RMK A01 T03610099  RH  021%=      5-min Rain = 0
KGGS 032315Z 11007KT 36/10 A2996 RMK A01 T03610099  RH  021%=      5-min Rain = 0
KGGS 032320Z 11006KT 36/10 A2996 RMK A01 T03610097  RH  021%=      5-min Rain = 0
KGGS 032325Z 11007KT 36/10 A2996 RMK A01 T03620100  RH  021%=      5-min Rain = 0
KGGS 032330Z 13007G13KT 36/10 A2996 RMK A01 T03630099  RH  021%=      5-min Rain = 0
KGGS 032335Z 10006KT 36/10 A2995 RMK A01 T03630098  RH  021%=      5-min Rain = 0
KGGS 032340Z 10007G13KT 36/10 A2995 RMK A01 T03630099  RH  021%=      5-min Rain = 0
KGGS 032345Z 10007KT 36/10 A2995 RMK A01 T03580096  RH  021%=      5-min Rain = 0
KGGS 032350Z 10007KT 36/10 A2995 RMK A01 T03570097  RH  021%=      5-min Rain = 0
KGGS 032355Z 12007KT 36/10 A2995 RMK A01 T03550100  RH  022%=      5-min Rain = 0
KGGS 040000Z 12007KT 35/10 A2995 RMK A01 T03520096  RH  022%=      5-min Rain = 0
KGGS 040005Z 11005KT 35/10 A2995 RMK A01 T03500100  RH  022%=      5-min Rain = 0
KGGS 040010Z 12004KT 35/10 A2995 RMK A01 T03500099  RH  022%=      5-min Rain = 0
KGGS 040015Z 12004KT 35/10 A2995 RMK A01 T03480100  RH  023%=      5-min Rain = 0
KGGS 040020Z 11005KT 35/10 A2996 RMK A01 T03470101  RH  023%=      5-min Rain = 0
KGGS 040025Z 12005KT 35/09 A2996 RMK A01 T03500094  RH  022%=      5-min Rain = 0
KGGS 040030Z 12005KT 35/10 A2996 RMK A01 T03500095  RH  022%=      5-min Rain = 0
KGGS 040035Z 12005KT 35/10 A2996 RMK A01 T03510096  RH  022%=      5-min Rain = 0
KGGS 040040Z 12006KT 35/10 A2996 RMK A01 T03510095  RH  022%=      5-min Rain = 0
KGGS 040045Z 12007KT 35/09 A2996 RMK A01 T03480092  RH  022%=      5-min Rain = 0
KGGS 040050Z 12005KT 35/09 A2996 RMK A01 T03450094  RH  022%=      5-min Rain = 0
KGGS 040055Z 12004KT 34/10 A2996 RMK A01 T03430097  RH  023%=      5-min Rain = 0
KGGS 040100Z 12004KT 34/10 A2996 RMK A01 T03400098  RH  023%=      5-min Rain = 0
KGGS 040105Z 12004KT 34/10 A2996 RMK A01 T03380097  RH  024%=      5-min Rain = 0
KGGS 040110Z 12004KT 34/10 A2996 RMK A01 T03370097  RH  024%=      5-min Rain = 0
KGGS 040115Z 12005KT 34/10 A2996 RMK A01 T03370098  RH  024%=      5-min Rain = 0
KGGS 040120Z 12005KT 34/10 A2996 RMK A01 T03360100  RH  024%=      5-min Rain = 0
KGGS 040125Z 12005KT 33/10 A2996 RMK A01 T03330102  RH  025%=      5-min Rain = 0
KGGS 040130Z 12005KT 33/10 A2996 RMK A01 T03300104  RH  026%=      5-min Rain = 0
KGGS 040135Z 13005KT 33/11 A2996 RMK A01 T03280105  RH  026%=      5-min Rain = 0
KGGS 040140Z 12004KT 33/11 A2996 RMK A01 T03250107  RH  027%=      5-min Rain = 0
KGGS 040145Z 12005KT 32/11 A2997 RMK A01 T03210108  RH  028%=      5-min Rain = 0
KGGS 040150Z 12004KT 32/11 A2997 RMK A01 T03180108  RH  028%=      5-min Rain = 0
KGGS 040155Z 12005KT 32/11 A2997 RMK A01 T03150108  RH  029%=      5-min Rain = 0
KGGS 040200Z 13005KT 31/11 A2997 RMK A01 T03120109  RH  030%=      5-min Rain = 0
KGGS 040205Z 13005KT 31/11 A2997 RMK A01 T03100109  RH  030%=      5-min Rain = 0
KGGS 040210Z 13005KT 31/11 A2998 RMK A01 T03080109  RH  030%=      5-min Rain = 0
KGGS 040215Z 13005KT 31/11 A2998 RMK A01 T03060109  RH  031%=      5-min Rain = 0
KGGS 040220Z 13006KT 31/11 A2998 RMK A01 T03050108  RH  031%=      5-min Rain = 0
KGGS 040225Z 13006KT 31/11 A2998 RMK A01 T03050109  RH  031%=      5-min Rain = 0
KGGS 040230Z 12005KT 31/11 A2999 RMK A01 T03050110  RH  031%=      5-min Rain = 0
KGGS 040235Z 13005KT 30/11 A2999 RMK A01 T03030111  RH  032%=      5-min Rain = 0
KGGS 040240Z 13005KT 30/11 A2999 RMK A01 T03010112  RH  032%=      5-min Rain = 0
KGGS 040245Z 13005KT 30/11 A2999 RMK A01 T02990112  RH  033%=      5-min Rain = 0
KGGS 040250Z 13005KT 30/11 A2999 RMK A01 T02980112  RH  033%=      5-min Rain = 0
KGGS 040255Z 13005KT 30/11 A30 RMK A01 T02970111  RH  033%=      5-min Rain = 0
KGGS 040300Z 13005KT 30/11 A30 RMK A01 T02970110  RH  033%=      5-min Rain = 0
KGGS 040305Z 12005KT 30/11 A30 RMK A01 T02970109  RH  032%=      5-min Rain = 0
KGGS 040310Z 13005KT 29/11 A30 RMK A01 T02940110  RH  033%=      5-min Rain = 0
KGGS 040315Z 13005KT 29/11 A3001 RMK A01 T02910111  RH  034%=      5-min Rain = 0
KGGS 040320Z 12005KT 29/11 A3001 RMK A01 T02880111  RH  035%=      5-min Rain = 0
KGGS 040325Z 13005KT 29/11 A3001 RMK A01 T02870111  RH  035%=      5-min Rain = 0
KGGS 040330Z 13005KT 29/11 A3001 RMK A01 T02860111  RH  035%=      5-min Rain = 0
KGGS 040335Z 13005KT 28/11 A3002 RMK A01 T02840110  RH  035%=      5-min Rain = 0
KGGS 040340Z 13005KT 28/11 A3002 RMK A01 T02840108  RH  035%=      5-min Rain = 0
KGGS 040345Z 14005KT 28/11 A3002 RMK A01 T02830106  RH  034%=      5-min Rain = 0
KGGS 040350Z 14005KT 28/11 A3002 RMK A01 T02800105  RH  035%=      5-min Rain = 0
KGGS 040355Z 14005KT 28/10 A3002 RMK A01 T02790103  RH  034%=      5-min Rain = 0
KGGS 040400Z 14005KT 28/10 A3003 RMK A01 T02780102  RH  034%=      5-min Rain = 0
KGGS 040405Z 14005KT 28/10 A3003 RMK A01 T02760102  RH  035%=      5-min Rain = 0
KGGS 040410Z 13005KT 27/10 A3003 RMK A01 T02740101  RH  035%=      5-min Rain = 0
KGGS 040415Z 13005KT 27/10 A3003 RMK A01 T02730100  RH  035%=      5-min Rain = 0
KGGS 040420Z 11004KT 27/10 A3003 RMK A01 T02730100  RH  035%=      5-min Rain = 0
KGGS 040425Z 10002KT 27/10 A3003 RMK A01 T02710100  RH  035%=      5-min Rain = 0
KGGS 040430Z 11003KT 27/10 A3003 RMK A01 T02700096  RH  035%=      5-min Rain = 0
KGGS 040435Z 12004KT 27/10 A3003 RMK A01 T02680097  RH  035%=      5-min Rain = 0
KGGS 040440Z 12004KT 27/10 A3003 RMK A01 T02670097  RH  035%=      5-min Rain = 0
KGGS 040445Z 13004KT 27/10 A3003 RMK A01 T02650098  RH  036%=      5-min Rain = 0
KGGS 040450Z 13005KT 26/10 A3003 RMK A01 T02620098  RH  037%=      5-min Rain = 0
KGGS 040455Z 13005KT 26/10 A3003 RMK A01 T02600099  RH  037%=      5-min Rain = 0

Page generated in 0.0152 seconds.